KPLR/PLR METAR and TAF weather

Enter ICAO airport designator
Station Type Date Time Source
KPLR METAR 2020/09/20 10:55 UTC NOAA

KPLR 201055Z AUTO VRB04KT 10SM FEW070 SCT075 BKN095 16/12 A3023 RMK A01


Station Type Date Time Source
KPLR Decoded METAR 2020/09/20 10:55 UTC NOAA

Station name not available
Sep 20, 2020 - 06:55 AM EDT / 2020.09.20 1055 UTC
Wind: Variable at 5 MPH (4 KT):0
Visibility: 10 mile(s):0
Sky conditions: mostly cloudy
Temperature: 60 F (16 C)
Dew Point: 53 F (12 C)
Relative Humidity: 77%
Pressure (altimeter): 30.23 in. Hg (1023 hPa)
ob: KPLR 201055Z AUTO VRB04KT 10SM FEW070 SCT075 BKN095 16/12 A3023 RMK A01
cycle: 11

Station Type Date Time Source
KPLR TAF UTC NOAA

Error!

Example: see airport list